Time;durP1;ratioP1;P1;durP2;ratioP2;P2;SDS_P1;SDS_P2;PMS_P1;PMS_P2;Temp;Humidity;BMP_temperature;BMP_pressure;BME280_temperature;BME280_humidity;BME280_pressure;Samples;Min_cycle;Max_cycle;Signal;HPM_P1;HPM_P2
2023/10/28 00:01:30;;;;;;;1.23;0.70;;;;;;;13.66;63.36;95913.00;5042724;28;20430;-68
2023/10/28 00:03:57;;;;;;;1.10;0.60;;;;;;;13.74;62.84;95913.78;5031379;28;20430;-69
2023/10/28 00:06:22;;;;;;;1.27;0.80;;;;;;;13.82;62.83;95914.41;5041009;28;20217;-69
2023/10/28 00:08:49;;;;;;;1.20;0.80;;;;;;;13.62;62.87;95922.31;5037598;28;20966;-69
2023/10/28 00:11:16;;;;;;;1.67;0.60;;;;;;;13.66;62.77;95928.00;5035451;28;20223;-69
2023/10/28 00:13:41;;;;;;;1.57;0.80;;;;;;;13.60;62.59;95929.63;5037206;28;20449;-69
2023/10/28 00:16:07;;;;;;;1.10;0.77;;;;;;;13.59;62.55;95925.38;5036237;28;20447;-69
2023/10/28 00:18:33;;;;;;;1.53;0.67;;;;;;;13.54;62.65;95934.88;5039958;28;20634;-68
2023/10/28 00:20:58;;;;;;;0.80;0.50;;;;;;;13.56;62.78;95933.66;5036943;28;20223;-68
2023/10/28 00:23:25;;;;;;;1.27;0.63;;;;;;;13.66;62.43;95936.69;5032573;28;20950;-68
2023/10/28 00:25:51;;;;;;;1.57;0.80;;;;;;;13.71;62.26;95935.28;5035273;28;20192;-67
2023/10/28 00:28:16;;;;;;;4.37;0.80;;;;;;;13.62;62.31;95937.31;5030511;28;20457;-68
2023/10/28 00:30:41;;;;;;;1.67;0.70;;;;;;;13.56;62.56;95938.94;5039395;28;20203;-68
2023/10/28 00:33:07;;;;;;;1.63;0.80;;;;;;;13.66;62.20;95938.53;5044403;28;20229;-70
2023/10/28 00:35:33;;;;;;;3.10;0.80;;;;;;;13.66;62.22;95944.59;5040202;28;20201;-69
2023/10/28 00:37:59;;;;;;;1.77;0.83;;;;;;;13.60;62.22;95940.16;5037461;28;20819;-69
2023/10/28 00:40:31;;;;;;;1.00;0.70;;;;;;;13.66;62.10;95939.31;5043881;28;20426;-70
2023/10/28 00:43:00;;;;;;;1.50;0.70;;;;;;;13.70;61.88;95939.72;5039475;28;20188;-71
2023/10/28 00:45:27;;;;;;;1.40;0.80;;;;;;;13.71;61.67;95940.56;5036808;28;20425;-69
2023/10/28 00:47:53;;;;;;;3.30;0.90;;;;;;;13.73;61.66;95946.44;5047688;28;20447;-70
2023/10/28 00:50:19;;;;;;;1.33;0.70;;;;;;;13.63;61.96;95947.63;5035787;28;20837;-71
2023/10/28 00:52:47;;;;;;;1.00;0.70;;;;;;;13.56;61.75;95949.47;5034459;28;20429;-70
2023/10/28 00:55:13;;;;;;;1.43;0.70;;;;;;;13.65;61.61;95955.34;5039919;28;20591;-70
2023/10/28 00:57:41;;;;;;;2.80;0.80;;;;;;;13.64;61.58;95953.72;5034200;28;20469;-68
2023/10/28 01:00:07;;;;;;;2.40;0.67;;;;;;;13.62;61.56;95948.63;5036214;28;20688;-69
2023/10/28 01:02:38;;;;;;;1.20;0.60;;;;;;;13.61;61.59;95948.84;5032575;28;20441;-69
2023/10/28 01:05:05;;;;;;;1.43;0.70;;;;;;;13.62;61.43;95953.09;5033125;28;20427;-69
2023/10/28 01:07:31;;;;;;;1.00;0.70;;;;;;;13.71;61.25;95962.41;5032376;28;20944;-70
2023/10/28 01:09:57;;;;;;;2.33;0.80;;;;;;;13.64;61.15;95956.34;5030614;28;20608;-68
2023/10/28 01:12:23;;;;;;;1.07;0.77;;;;;;;13.70;61.04;95957.34;5028654;28;20438;-69
2023/10/28 01:14:50;;;;;;;1.63;0.80;;;;;;;13.69;61.09;95964.44;5029250;28;20223;-69
2023/10/28 01:17:16;;;;;;;1.17;0.70;;;;;;;13.62;61.15;95964.44;5032764;28;20454;-69
2023/10/28 01:19:41;;;;;;;1.47;0.70;;;;;;;13.58;61.26;95968.50;5030569;28;21108;-69
2023/10/28 01:22:07;;;;;;;1.27;0.60;;;;;;;13.56;61.18;95962.63;5027928;28;20803;-69
2023/10/28 01:24:34;;;;;;;1.87;0.90;;;;;;;13.55;61.10;95968.88;5031517;28;20198;-69
2023/10/28 01:27:00;;;;;;;3.23;1.10;;;;;;;13.58;61.20;95965.03;5030324;28;20416;-69
2023/10/28 01:29:26;;;;;;;1.23;0.67;;;;;;;13.36;61.69;95973.09;5026806;28;20534;-67
2023/10/28 01:31:51;;;;;;;2.63;0.70;;;;;;;13.42;61.49;95960.97;5036450;28;20659;-69
2023/10/28 01:34:17;;;;;;;2.20;0.90;;;;;;;13.39;61.85;95974.50;5049011;28;20209;-69
2023/10/28 01:36:43;;;;;;;2.47;0.90;;;;;;;13.30;62.22;95976.50;5028642;28;20236;-69
2023/10/28 01:39:12;;;;;;;1.53;0.70;;;;;;;13.35;61.99;95980.19;5033070;28;20192;-70
2023/10/28 01:41:37;;;;;;;2.97;0.70;;;;;;;13.28;62.22;95984.59;5028046;28;20427;-68
2023/10/28 01:44:03;;;;;;;3.90;1.03;;;;;;;13.30;62.61;95972.06;5033618;28;20426;-68
2023/10/28 01:46:29;;;;;;;4.40;0.60;;;;;;;13.33;62.19;95978.75;5028308;28;20892;-69
2023/10/28 01:48:54;;;;;;;2.10;0.80;;;;;;;13.42;62.26;95974.13;5036281;28;20660;-71
2023/10/28 01:51:20;;;;;;;1.60;0.80;;;;;;;13.32;62.16;95969.22;5036898;28;20680;-69
2023/10/28 01:53:46;;;;;;;2.43;0.90;;;;;;;13.42;62.09;95982.81;5044874;28;20226;-70
2023/10/28 01:56:11;;;;;;;5.90;1.00;;;;;;;13.32;62.52;95985.84;5035166;28;20198;-69
2023/10/28 01:58:37;;;;;;;1.50;0.80;;;;;;;13.42;62.27;95984.66;5030003;28;20446;-69
2023/10/28 02:01:02;;;;;;;1.20;0.70;;;;;;;13.40;62.40;95986.69;5031390;28;20652;-69
2023/10/28 02:03:28;;;;;;;1.80;0.90;;;;;;;13.40;62.29;95986.69;5045283;28;20668;-69
2023/10/28 02:05:53;;;;;;;1.43;0.80;;;;;;;13.45;62.06;95989.53;5032227;28;20614;-69
2023/10/28 02:08:19;;;;;;;1.97;0.87;;;;;;;13.52;61.81;95987.72;5033785;28;20290;-69
2023/10/28 02:10:44;;;;;;;2.07;0.90;;;;;;;13.44;62.24;95987.91;5031778;28;20231;-68
2023/10/28 02:13:10;;;;;;;3.10;0.80;;;;;;;13.54;62.25;95998.84;5031088;28;20265;-69
2023/10/28 02:15:35;;;;;;;1.80;1.13;;;;;;;13.51;62.29;95993.97;5038448;28;20196;-70
2023/10/28 02:18:04;;;;;;;5.33;0.90;;;;;;;13.49;62.07;95996.00;5031598;28;20294;-70
2023/10/28 02:20:30;;;;;;;1.40;1.10;;;;;;;13.55;61.95;96000.47;5035831;28;20183;-69
2023/10/28 02:22:55;;;;;;;1.77;0.90;;;;;;;13.59;61.89;96001.69;5035678;28;20445;-69
2023/10/28 02:25:23;;;;;;;1.97;1.07;;;;;;;13.60;61.85;95999.88;5036993;28;20529;-70
2023/10/28 02:27:49;;;;;;;9.80;1.10;;;;;;;13.60;61.86;95990.16;5032144;28;20681;-70
2023/10/28 02:30:14;;;;;;;1.53;0.97;;;;;;;13.61;61.65;95996.22;5032387;28;20465;-69
2023/10/28 02:32:40;;;;;;;3.47;0.80;;;;;;;13.57;61.56;96003.72;5037314;28;20202;-69
2023/10/28 02:35:06;;;;;;;2.30;0.93;;;;;;;13.58;61.46;95999.25;5034960;28;20180;-69
2023/10/28 02:37:31;;;;;;;2.37;1.30;;;;;;;13.60;61.46;95998.06;5031291;28;20214;-69
2023/10/28 02:39:56;;;;;;;9.57;1.00;;;;;;;13.50;61.28;95997.63;5051340;28;20421;-69
2023/10/28 02:42:22;;;;;;;2.60;0.90;;;;;;;13.48;61.46;95999.66;5033185;28;20275;-69
2023/10/28 02:44:48;;;;;;;6.23;1.00;;;;;;;13.50;61.36;96002.88;5039191;28;20183;-69
2023/10/28 02:47:15;;;;;;;1.37;0.80;;;;;;;13.50;61.17;96011.59;5033735;28;20616;-69
2023/10/28 02:49:40;;;;;;;1.53;1.00;;;;;;;13.52;61.26;96009.59;5036623;28;20534;-70
2023/10/28 02:52:06;;;;;;;3.03;1.07;;;;;;;13.46;61.17;96006.94;5035622;28;20438;-70
2023/10/28 02:54:32;;;;;;;1.90;0.90;;;;;;;13.39;61.28;96006.06;5034280;28;20705;-68
2023/10/28 02:56:58;;;;;;;2.30;0.90;;;;;;;13.37;61.31;96001.03;5038505;28;20458;-69
2023/10/28 02:59:23;;;;;;;4.60;0.97;;;;;;;13.46;61.11;96006.94;5012537;28;20191;-72
2023/10/28 03:01:49;;;;;;;3.33;0.97;;;;;;;13.39;61.21;96000.81;5034297;28;20545;-69
2023/10/28 03:04:15;;;;;;;3.37;1.00;;;;;;;13.47;61.07;96003.31;5035207;28;20246;-69
2023/10/28 03:06:41;;;;;;;2.63;1.00;;;;;;;13.51;60.98;96009.78;5038186;28;20239;-69
2023/10/28 03:09:06;;;;;;;5.60;1.00;;;;;;;13.51;61.00;96010.59;5030121;28;20473;-69
2023/10/28 03:11:38;;;;;;;3.00;1.10;;;;;;;13.46;60.97;96013.00;5030371;28;20208;-68
2023/10/28 03:14:04;;;;;;;4.27;1.30;;;;;;;13.43;60.85;96002.06;5005334;28;20192;-69
2023/10/28 03:16:30;;;;;;;4.10;1.20;;;;;;;13.35;60.99;96008.28;5029843;28;20465;-68
2023/10/28 03:18:56;;;;;;;2.13;1.00;;;;;;;13.40;60.98;96010.34;5029235;28;20442;-69
2023/10/28 03:21:21;;;;;;;3.00;1.40;;;;;;;13.45;60.81;96010.59;5028969;28;20418;-70
2023/10/28 03:23:47;;;;;;;6.20;1.17;;;;;;;13.45;60.50;96006.13;5028792;28;20186;-70
2023/10/28 03:26:12;;;;;;;3.20;1.10;;;;;;;13.40;60.77;96007.72;5035417;28;20274;-67
2023/10/28 03:28:38;;;;;;;6.40;1.30;;;;;;;13.37;60.75;96007.09;5030282;28;20207;-69
2023/10/28 03:31:09;;;;;;;7.07;1.33;;;;;;;13.37;60.71;96008.91;5024664;28;20285;-68
2023/10/28 03:33:35;;;;;;;2.50;1.00;;;;;;;13.33;61.04;96013.78;5029957;28;20191;-69
2023/10/28 03:36:01;;;;;;;3.63;1.63;;;;;;;13.37;61.04;96014.97;5035506;28;20452;-69
2023/10/28 03:38:26;;;;;;;5.37;2.03;;;;;;;13.42;60.61;96016.25;5032433;28;20504;-69
2023/10/28 03:40:52;;;;;;;4.03;1.20;;;;;;;13.36;60.88;96018.63;5031169;28;20720;-70
2023/10/28 03:43:17;;;;;;;6.93;1.33;;;;;;;13.44;60.97;96008.97;5036490;28;20192;-69
2023/10/28 03:45:43;;;;;;;8.83;1.30;;;;;;;13.43;60.99;96017.88;5037472;28;20217;-69
2023/10/28 03:48:08;;;;;;;4.63;1.40;;;;;;;13.42;60.87;96009.13;5036226;28;20266;-69
2023/10/28 03:50:34;;;;;;;9.40;1.67;;;;;;;13.47;60.66;96008.56;5028348;28;20615;-69
2023/10/28 03:52:59;;;;;;;3.10;1.37;;;;;;;13.44;60.63;96008.97;5035822;28;20210;-70
2023/10/28 03:55:25;;;;;;;3.80;1.17;;;;;;;13.36;61.12;96002.03;5040235;28;20464;-70
2023/10/28 03:57:50;;;;;;;6.00;1.20;;;;;;;13.39;60.85;96006.06;5034930;28;20208;-68
2023/10/28 04:00:16;;;;;;;2.40;1.10;;;;;;;13.46;60.70;96004.31;5034367;28;20649;-68
2023/10/28 04:02:41;;;;;;;1.60;1.07;;;;;;;13.45;60.46;96007.94;5042162;28;20187;-68
2023/10/28 04:05:07;;;;;;;4.27;1.10;;;;;;;13.39;60.61;96016.59;5031685;28;20230;-70
2023/10/28 04:07:32;;;;;;;5.00;1.37;;;;;;;13.40;60.76;96013.00;5038738;28;20227;-68
2023/10/28 04:10:03;;;;;;;3.93;1.17;;;;;;;13.23;60.94;96021.22;5033826;28;20203;-69
2023/10/28 04:12:30;;;;;;;3.70;1.10;;;;;;;13.39;60.44;96019.22;5037682;28;20198;-69
2023/10/28 04:14:55;;;;;;;2.93;1.20;;;;;;;13.47;60.18;96016.47;5029103;28;20441;-69
2023/10/28 04:17:24;;;;;;;3.83;1.23;;;;;;;13.53;59.90;96013.03;5035124;28;21242;-69
2023/10/28 04:19:49;;;;;;;4.50;1.23;;;;;;;13.47;60.01;96014.63;5036130;28;20666;-69
2023/10/28 04:22:15;;;;;;;4.70;1.60;;;;;;;13.56;60.11;96017.88;5029722;28;20423;-69
2023/10/28 04:24:41;;;;;;;3.87;1.13;;;;;;;13.53;59.70;96013.03;5036318;28;20194;-67
2023/10/28 04:27:06;;;;;;;5.70;1.17;;;;;;;13.58;59.70;96015.88;5030776;28;21043;-68
2023/10/28 04:29:32;;;;;;;3.70;1.20;;;;;;;13.41;59.42;96014.63;5017723;28;20239;-69
2023/10/28 04:31:57;;;;;;;4.50;1.30;;;;;;;13.50;59.31;96013.41;5026632;28;20206;-68
2023/10/28 04:34:23;;;;;;;16.90;1.57;;;;;;;13.47;59.23;96021.72;5027598;28;20657;-68
2023/10/28 04:36:48;;;;;;;2.23;0.97;;;;;;;13.51;59.04;96015.88;5028433;28;20225;-69
2023/10/28 04:39:14;;;;;;;2.63;1.03;;;;;;;13.51;59.09;96009.78;5026487;28;20700;-71
2023/10/28 04:41:39;;;;;;;1.20;0.80;;;;;;;13.53;58.95;96013.03;5025341;28;20618;-68
2023/10/28 04:44:05;;;;;;;1.87;0.90;;;;;;;13.56;58.88;96012.63;5029571;28;20652;-68
2023/10/28 04:46:30;;;;;;;2.33;1.00;;;;;;;13.58;58.64;96013.25;5027035;28;20203;-70
2023/10/28 04:48:56;;;;;;;6.37;1.00;;;;;;;13.56;59.03;96007.34;5033914;28;20195;-68
2023/10/28 04:51:21;;;;;;;3.37;1.20;;;;;;;13.58;58.67;96007.97;5027131;28;20298;-69
2023/10/28 04:53:47;;;;;;;3.70;1.07;;;;;;;13.54;58.44;96011.22;5028207;28;20200;-69
2023/10/28 04:56:13;;;;;;;7.10;1.20;;;;;;;13.56;58.34;96010.00;5030580;28;20233;-68
2023/10/28 04:58:38;;;;;;;3.10;1.10;;;;;;;13.52;58.24;96011.41;5027816;28;20804;-69
2023/10/28 05:01:04;;;;;;;1.77;0.80;;;;;;;13.49;58.03;96017.06;5027648;28;20208;-68
2023/10/28 05:03:29;;;;;;;3.53;1.00;;;;;;;13.49;58.12;96012.63;5028673;28;20188;-70
2023/10/28 05:05:55;;;;;;;5.57;0.90;;;;;;;13.50;57.99;96016.03;5027557;28;20629;-69
2023/10/28 05:08:20;;;;;;;2.10;0.80;;;;;;;13.47;58.29;96011.19;5027421;28;20334;-68
2023/10/28 05:10:46;;;;;;;2.30;0.97;;;;;;;13.49;57.75;96003.88;5027551;28;20208;-69
2023/10/28 05:13:12;;;;;;;4.10;1.27;;;;;;;13.41;57.63;96010.19;5022059;28;20203;-69
2023/10/28 05:15:38;;;;;;;3.10;0.90;;;;;;;13.42;57.49;96003.09;5027608;28;20195;-69
2023/10/28 05:18:04;;;;;;;3.33;1.10;;;;;;;13.43;57.58;96002.88;5028026;28;20489;-69
2023/10/28 05:20:33;;;;;;;2.63;0.90;;;;;;;13.47;57.32;96005.94;5026685;28;20431;-67
2023/10/28 05:22:58;;;;;;;2.20;1.10;;;;;;;13.51;57.39;96007.13;5020966;28;20442;-69
2023/10/28 05:25:23;;;;;;;1.30;0.93;;;;;;;13.51;57.28;96007.13;5033689;28;20821;-69
2023/10/28 05:27:50;;;;;;;1.47;0.80;;;;;;;13.54;57.29;96006.75;5021309;28;20385;-70
2023/10/28 05:30:16;;;;;;;3.77;0.90;;;;;;;13.44;57.29;96009.75;5021335;28;20239;-70
2023/10/28 05:32:41;;;;;;;3.30;0.90;;;;;;;13.45;57.18;96010.59;5027647;28;20436;-70
2023/10/28 05:35:11;;;;;;;2.67;1.20;;;;;;;13.41;57.25;96004.91;5034373;28;20206;-68
2023/10/28 05:37:37;;;;;;;2.40;1.00;;;;;;;13.44;57.34;96003.69;5037163;28;20642;-70
2023/10/28 05:40:04;;;;;;;2.60;1.10;;;;;;;13.44;57.42;96015.03;5027348;28;20497;-69
2023/10/28 05:42:30;;;;;;;3.17;1.13;;;;;;;13.39;57.50;96017.44;5030645;28;21066;-69
2023/10/28 05:44:56;;;;;;;8.63;1.13;;;;;;;13.38;57.37;96018.44;5030482;28;20517;-70
2023/10/28 05:47:21;;;;;;;2.37;1.53;;;;;;;13.40;57.52;96028.78;5034867;28;20215;-69
2023/10/28 05:49:47;;;;;;;2.60;1.40;;;;;;;13.42;57.69;96030.19;5030294;28;20483;-69
2023/10/28 05:52:13;;;;;;;2.80;1.00;;;;;;;13.44;57.47;96027.38;5026955;28;20303;-68
2023/10/28 05:54:38;;;;;;;2.53;1.00;;;;;;;13.49;57.46;96032.84;5033159;28;20211;-68
2023/10/28 05:57:05;;;;;;;2.03;0.80;;;;;;;13.50;57.14;96045.00;5027151;28;20203;-68
2023/10/28 05:59:30;;;;;;;3.53;0.90;;;;;;;13.53;57.25;96039.34;5030169;28;20558;-68
2023/10/28 06:01:56;;;;;;;2.57;1.10;;;;;;;13.51;57.24;96041.34;5036431;28;20442;-70
2023/10/28 06:04:22;;;;;;;2.40;1.20;;;;;;;13.51;57.21;96047.44;5034693;28;20302;-70
2023/10/28 06:06:48;;;;;;;3.43;0.80;;;;;;;13.46;57.27;96039.31;5025529;28;20203;-69
2023/10/28 06:09:15;;;;;;;3.70;1.37;;;;;;;13.50;57.39;96045.00;5035115;28;20430;-70
2023/10/28 06:11:40;;;;;;;6.60;1.20;;;;;;;13.42;57.43;96045.97;5044004;28;20457;-69
2023/10/28 06:14:06;;;;;;;4.40;1.27;;;;;;;13.47;57.50;96045.41;5030483;28;20794;-70
2023/10/28 06:16:31;;;;;;;3.20;1.00;;;;;;;13.51;57.63;96052.72;5026180;28;20310;-70
2023/10/28 06:18:57;;;;;;;3.83;1.30;;;;;;;13.54;57.24;96053.31;5035299;28;20780;-69
2023/10/28 06:21:23;;;;;;;2.97;1.40;;;;;;;13.56;57.39;96054.75;5026355;28;20245;-70
2023/10/28 06:23:48;;;;;;;3.33;1.50;;;;;;;13.56;57.17;96065.28;5037410;28;20191;-69
2023/10/28 06:26:14;;;;;;;1.67;1.20;;;;;;;13.61;57.41;96062.81;5037627;28;20458;-69
2023/10/28 06:28:39;;;;;;;2.80;1.33;;;;;;;13.64;57.29;96072.16;5046162;28;20195;-68
2023/10/28 06:31:05;;;;;;;4.70;1.90;;;;;;;13.63;57.46;96076.59;5013168;28;20204;-70
2023/10/28 06:33:32;;;;;;;4.60;2.13;;;;;;;13.69;57.25;96080.25;5043513;28;20730;-70
2023/10/28 06:35:57;;;;;;;3.60;1.53;;;;;;;13.71;57.25;96077.44;5044931;28;20227;-70
2023/10/28 06:38:25;;;;;;;3.67;1.27;;;;;;;13.73;57.30;96076.22;5036272;28;20828;-69
2023/10/28 06:40:51;;;;;;;5.20;1.50;;;;;;;13.75;57.36;96078.66;5037605;28;20185;-69
2023/10/28 06:43:17;;;;;;;5.47;2.30;;;;;;;13.74;57.36;96084.94;5037936;28;20541;-69
2023/10/28 06:45:43;;;;;;;2.87;1.20;;;;;;;13.74;57.69;96084.94;5038462;28;20195;-69
2023/10/28 06:48:09;;;;;;;4.60;1.17;;;;;;;13.62;57.59;96080.25;5038821;28;20462;-69
2023/10/28 06:50:35;;;;;;;2.90;1.30;;;;;;;13.62;57.70;96088.16;5029935;28;20210;-68
2023/10/28 06:53:00;;;;;;;6.60;1.67;;;;;;;13.57;57.85;96090.59;5044854;28;20556;-69
2023/10/28 06:55:27;;;;;;;4.27;1.40;;;;;;;13.55;57.89;96089.97;5033959;28;20197;-68
2023/10/28 06:57:52;;;;;;;5.07;1.57;;;;;;;13.55;58.02;96100.50;5031309;28;20223;-69
2023/10/28 07:00:21;;;;;;;3.50;1.30;;;;;;;13.54;58.16;96105.97;5032570;28;20431;-68
2023/10/28 07:02:46;;;;;;;5.17;1.50;;;;;;;13.61;57.85;96102.31;5033756;28;20190;-68
2023/10/28 07:05:14;;;;;;;3.67;1.47;;;;;;;13.68;57.98;96104.97;5037875;28;20430;-69
2023/10/28 07:07:40;;;;;;;6.83;1.63;;;;;;;13.69;58.15;96121.59;5032956;28;20216;-68
2023/10/28 07:10:06;;;;;;;3.30;1.83;;;;;;;13.80;57.49;96124.44;5036971;28;20878;-69
2023/10/28 07:12:31;;;;;;;3.87;1.77;;;;;;;13.84;57.75;96122.25;5043493;28;20564;-69
2023/10/28 07:14:58;;;;;;;2.20;1.23;;;;;;;13.83;57.91;96124.06;5042751;28;20437;-70
2023/10/28 07:17:23;;;;;;;2.70;1.40;;;;;;;13.91;58.04;96117.00;5041794;28;20242;-70
2023/10/28 07:19:49;;;;;;;5.13;1.50;;;;;;;13.87;57.78;96119.19;5030276;28;20426;-70
2023/10/28 07:22:20;;;;;;;5.07;1.53;;;;;;;14.05;57.67;96126.50;5029770;28;20560;-69
2023/10/28 07:24:48;;;;;;;2.50;1.00;;;;;;;14.10;57.25;96124.09;5031159;28;20931;-69
2023/10/28 07:27:14;;;;;;;1.70;1.10;;;;;;;14.05;57.23;96126.50;5030333;28;20450;-70
2023/10/28 07:29:39;;;;;;;2.83;1.00;;;;;;;14.10;57.32;96134.63;5032647;28;21013;-70
2023/10/28 07:32:06;;;;;;;7.00;1.80;;;;;;;14.19;57.08;96137.06;5029088;28;20653;-70
2023/10/28 07:34:32;;;;;;;3.67;1.20;;;;;;;14.24;56.40;96145.19;5038069;28;20241;-68
2023/10/28 07:37:00;;;;;;;6.13;1.70;;;;;;;14.34;56.49;96145.59;5036068;28;20445;-69
2023/10/28 07:39:26;;;;;;;4.13;1.10;;;;;;;14.25;56.20;96152.88;5037360;28;20442;-70
2023/10/28 07:41:53;;;;;;;4.67;1.20;;;;;;;14.35;56.37;96141.94;5033300;28;21184;-69
2023/10/28 07:44:18;;;;;;;3.03;1.37;;;;;;;14.32;56.35;96139.72;5035345;28;20685;-68
2023/10/28 07:46:44;;;;;;;3.57;1.40;;;;;;;14.52;56.32;96141.56;5033478;28;20442;-69
2023/10/28 07:49:10;;;;;;;2.30;1.23;;;;;;;14.67;55.77;96147.47;5034021;28;20300;-70
2023/10/28 07:51:36;;;;;;;3.10;1.37;;;;;;;14.91;55.61;96153.13;5033819;28;20258;-68
2023/10/28 07:54:03;;;;;;;5.27;1.20;;;;;;;15.16;55.45;96157.75;5040390;28;20425;-69
2023/10/28 07:56:29;;;;;;;6.10;1.30;;;;;;;15.40;54.58;96161.50;5029944;28;20811;-68
2023/10/28 07:58:59;;;;;;;2.37;1.20;;;;;;;15.69;53.57;96167.31;5031939;28;20515;-70
2023/10/28 08:01:27;;;;;;;1.97;1.00;;;;;;;16.16;52.76;96166.25;5031445;28;20440;-70
2023/10/28 08:03:52;;;;;;;2.37;1.30;;;;;;;16.38;51.78;96164.88;5033949;28;20435;-69
2023/10/28 08:06:19;;;;;;;2.60;1.10;;;;;;;16.55;51.32;96170.47;5032460;28;20418;-69
2023/10/28 08:08:45;;;;;;;4.93;1.63;;;;;;;16.91;50.47;96172.63;5030493;28;20205;-69
2023/10/28 08:11:12;;;;;;;3.10;1.10;;;;;;;17.20;49.51;96176.44;5029287;28;20461;-69
2023/10/28 08:13:38;;;;;;;2.27;1.07;;;;;;;17.29;48.67;96171.66;5031584;28;20195;-71
2023/10/28 08:16:04;;;;;;;2.87;1.10;;;;;;;17.22;48.60;96182.31;5044539;28;20427;-69
2023/10/28 08:18:31;;;;;;;2.10;1.23;;;;;;;17.47;48.74;96186.75;5032769;28;20215;-69
2023/10/28 08:20:59;;;;;;;4.07;1.27;;;;;;;17.63;47.10;96178.22;5029399;28;20513;-70
2023/10/28 08:23:25;;;;;;;3.37;0.97;;;;;;;18.09;47.00;96185.81;5037033;28;20428;-69
2023/10/28 08:25:50;;;;;;;4.03;1.20;;;;;;;18.09;46.50;96180.50;5030376;28;20430;-69
2023/10/28 08:28:16;;;;;;;3.97;1.30;;;;;;;18.14;46.40;96190.44;5034081;28;20235;-69
2023/10/28 08:30:42;;;;;;;3.03;1.30;;;;;;;17.77;46.54;96192.09;5036368;28;20253;-68
2023/10/28 08:33:08;;;;;;;5.33;1.00;;;;;;;17.63;46.75;96196.75;5029025;28;20431;-69
2023/10/28 08:35:34;;;;;;;3.00;1.30;;;;;;;17.61;47.54;96188.22;5028599;28;20632;-69
2023/10/28 08:38:05;;;;;;;6.47;1.50;;;;;;;17.81;46.55;96187.97;5045403;28;20538;-70
2023/10/28 08:40:31;;;;;;;4.17;1.30;;;;;;;18.23;46.09;96183.75;5029846;28;20282;-68
2023/10/28 08:43:01;;;;;;;2.80;1.27;;;;;;;18.36;45.31;96182.78;5036590;28;20517;-70
2023/10/28 08:45:29;;;;;;;3.30;1.37;;;;;;;18.23;45.35;96184.59;5033990;28;21056;-69
2023/10/28 08:47:55;;;;;;;2.40;1.10;;;;;;;18.13;45.44;96179.03;5032720;28;20827;-69
2023/10/28 08:50:24;;;;;;;3.13;1.13;;;;;;;18.30;45.33;96176.53;5009077;28;20835;-69
2023/10/28 08:52:57;;;;;;;5.33;1.47;;;;;;;18.41;44.80;96175.75;5027758;28;20464;-69
2023/10/28 08:55:25;;;;;;;4.50;1.30;;;;;;;18.22;45.11;96180.31;5027084;28;20437;-69
2023/10/28 08:57:51;;;;;;;2.20;1.20;;;;;;;18.18;45.50;96181.00;5037637;28;20503;-69
2023/10/28 09:00:19;;;;;;;2.33;1.07;;;;;;;18.11;45.57;96189.03;5028210;28;20430;-69
2023/10/28 09:02:47;;;;;;;5.50;1.50;;;;;;;18.07;45.08;96180.75;5031576;28;20183;-69
2023/10/28 09:05:14;;;;;;;4.63;1.20;;;;;;;18.17;44.91;96177.53;5038009;28;20510;-69
2023/10/28 09:07:40;;;;;;;3.07;1.20;;;;;;;18.50;44.66;96188.69;5035264;28;20906;-69
2023/10/28 09:10:06;;;;;;;2.50;0.93;;;;;;;18.72;44.23;96188.97;5032669;28;20803;-69
2023/10/28 09:12:32;;;;;;;3.60;1.60;;;;;;;19.09;43.67;96185.31;5037996;28;20492;-69
2023/10/28 09:14:58;;;;;;;2.50;1.53;;;;;;;19.32;42.93;96181.81;5048178;28;21156;-68
2023/10/28 09:17:23;;;;;;;3.50;1.43;;;;;;;19.32;42.65;96184.47;4993915;28;20219;-69
2023/10/28 09:19:52;;;;;;;4.80;1.67;;;;;;;19.17;42.67;96188.41;5028737;28;20179;-69
2023/10/28 09:22:18;;;;;;;6.53;1.87;;;;;;;18.87;43.33;96202.59;5039053;28;20188;-69
2023/10/28 09:24:46;;;;;;;5.43;2.03;;;;;;;18.98;43.34;96200.22;5030628;28;20423;-68
2023/10/28 09:27:13;;;;;;;2.57;1.53;;;;;;;18.78;43.46;96195.19;5032916;28;20234;-71
2023/10/28 09:29:40;;;;;;;3.90;1.63;;;;;;;18.56;43.95;96196.53;5029499;28;20473;-69
2023/10/28 09:32:08;;;;;;;4.67;1.30;;;;;;;18.36;44.34;96174.81;5028177;28;20841;-70
2023/10/28 09:34:40;;;;;;;3.80;1.53;;;;;;;18.07;44.90;96169.31;5031078;28;20938;-70
2023/10/28 09:37:09;;;;;;;3.07;1.30;;;;;;;18.18;44.97;96181.78;5035263;28;20459;-72
2023/10/28 09:39:35;;;;;;;3.90;1.23;;;;;;;18.41;44.46;96191.69;5029243;28;20434;-68
2023/10/28 09:42:02;;;;;;;4.37;1.50;;;;;;;18.48;44.48;96188.91;5034824;28;20430;-69
2023/10/28 09:44:28;;;;;;;3.97;1.30;;;;;;;18.41;44.07;96186.38;5029476;28;20983;-69
2023/10/28 09:47:01;;;;;;;3.70;1.20;;;;;;;18.23;44.70;96191.72;5028606;28;20500;-70
2023/10/28 09:49:30;;;;;;;7.60;2.13;;;;;;;18.50;44.44;96189.50;5027986;28;20977;-68
2023/10/28 09:52:14;;;;;;;4.63;2.20;;;;;;;18.58;44.34;96188.38;5027877;28;20976;-70
2023/10/28 09:54:41;;;;;;;6.57;2.00;;;;;;;18.47;44.28;96189.13;5028465;28;20548;-68
2023/10/28 09:57:10;;;;;;;6.30;2.00;;;;;;;18.41;44.18;96190.84;5033145;28;20453;-69
2023/10/28 09:59:40;;;;;;;4.33;2.07;;;;;;;18.67;43.86;96189.66;5028895;28;20990;-70
2023/10/28 10:02:27;;;;;;;6.17;2.00;;;;;;;19.05;43.94;96203.53;5032810;28;20477;-72
2023/10/28 10:05:15;;;;;;;2.30;1.20;;;;;;;18.93;42.90;96184.13;5027825;28;20426;-70
2023/10/28 10:07:40;;;;;;;6.50;1.90;;;;;;;18.45;43.58;96194.69;5028668;28;20798;-70
2023/10/28 10:10:13;;;;;;;4.93;2.37;;;;;;;18.90;43.56;96200.53;5027390;28;20454;-69
2023/10/28 10:12:39;;;;;;;3.23;1.90;;;;;;;19.24;42.57;96195.47;5037017;28;20198;-70
2023/10/28 10:15:07;;;;;;;3.03;1.60;;;;;;;19.76;42.44;96200.00;5031672;28;20430;-69
2023/10/28 10:17:55;;;;;;;6.83;2.60;;;;;;;20.30;41.23;96197.03;5030894;28;20211;-70
2023/10/28 10:20:27;;;;;;;2.70;1.57;;;;;;;20.13;40.44;96198.88;5030081;28;20431;-70
2023/10/28 10:22:58;;;;;;;4.80;1.80;;;;;;;19.93;41.07;96210.72;5045080;28;20437;-70
2023/10/28 10:25:35;;;;;;;2.63;1.30;;;;;;;19.24;41.29;96214.84;5043695;28;20417;-72
2023/10/28 10:28:12;;;;;;;5.30;1.50;;;;;;;19.54;41.35;96203.28;5031417;28;20465;-68
2023/10/28 10:30:37;;;;;;;3.83;1.40;;;;;;;19.55;41.65;96199.59;5030482;28;20459;-68
2023/10/28 10:33:03;;;;;;;3.17;1.80;;;;;;;19.06;41.75;96207.81;5036050;28;20426;-70
2023/10/28 10:35:31;;;;;;;5.00;1.20;;;;;;;18.87;42.65;96221.19;5039000;28;20281;-71
2023/10/28 10:38:02;;;;;;;7.73;1.50;;;;;;;18.79;42.67;96196.81;5041159;28;20208;-69
2023/10/28 10:40:31;;;;;;;7.20;1.97;;;;;;;18.75;43.20;96207.09;5038715;28;20540;-69
2023/10/28 10:43:03;;;;;;;2.73;1.23;;;;;;;19.33;42.60;96202.03;5037165;28;20487;-70
2023/10/28 10:45:28;;;;;;;5.00;1.10;;;;;;;19.77;41.50;96197.13;5027470;28;20437;-70
2023/10/28 10:47:53;;;;;;;3.27;1.20;;;;;;;19.97;40.71;96187.94;5033582;28;20445;-69
2023/10/28 10:50:20;;;;;;;8.80;1.50;;;;;;;20.24;40.42;96200.66;5029900;28;20215;-69
2023/10/28 10:52:46;;;;;;;2.53;1.37;;;;;;;20.46;39.77;96195.47;5044990;28;20215;-69
2023/10/28 10:55:11;;;;;;;3.87;1.37;;;;;;;20.56;39.60;96202.78;5036688;28;20452;-69
2023/10/28 10:57:37;;;;;;;3.60;1.53;;;;;;;20.07;39.78;96197.97;5036875;28;20480;-69
2023/10/28 11:00:11;;;;;;;4.97;1.43;;;;;;;19.79;40.14;96204.84;5039460;28;20593;-69
2023/10/28 11:02:38;;;;;;;3.10;1.70;;;;;;;19.73;40.86;96195.97;5045842;28;20650;-70
2023/10/28 11:05:04;;;;;;;6.77;1.33;;;;;;;19.55;41.28;96201.41;5042625;28;20426;-68
2023/10/28 11:07:30;;;;;;;3.80;1.33;;;;;;;19.48;41.49;96199.72;5030009;28;20541;-68
2023/10/28 11:09:55;;;;;;;8.73;1.63;;;;;;;19.37;41.67;96197.88;5033943;28;20564;-69
2023/10/28 11:12:23;;;;;;;5.83;1.37;;;;;;;19.15;42.40;96205.63;5032014;28;20210;-69
2023/10/28 11:14:52;;;;;;;4.87;1.50;;;;;;;18.87;42.59;96210.56;5030121;28;20304;-69
2023/10/28 11:17:17;;;;;;;3.97;1.33;;;;;;;18.71;43.25;96200.59;5029932;28;20567;-69
2023/10/28 11:19:48;;;;;;;7.67;1.70;;;;;;;18.65;43.38;96198.88;5037648;28;20427;-69
2023/10/28 11:22:15;;;;;;;2.70;1.17;;;;;;;18.55;43.35;96200.22;5030659;28;20237;-69
2023/10/28 11:24:42;;;;;;;5.13;1.90;;;;;;;18.50;43.63;96191.34;5033767;28;20441;-68
2023/10/28 11:27:08;;;;;;;3.77;1.57;;;;;;;18.57;43.69;96194.72;5042498;28;21029;-68
2023/10/28 11:29:37;;;;;;;5.90;1.57;;;;;;;18.46;44.07;96191.00;5031292;28;20534;-70
2023/10/28 11:32:08;;;;;;;4.87;1.50;;;;;;;18.45;43.99;96193.88;5035726;28;20482;-68